sensor_id;sensor_type;location;lat;lon;timestamp;pressure;altitude;pressure_sealevel;temperature;humidity
78582;BME280;67878;46.242;5.974;2024-01-06T00:00:50;94195.16;;;19.38;48.95
78582;BME280;67878;46.242;5.974;2024-01-06T00:03:15;94196.16;;;19.37;48.92
78582;BME280;67878;46.242;5.974;2024-01-06T00:05:41;94189.31;;;19.36;49.00
78582;BME280;67878;46.242;5.974;2024-01-06T00:08:06;94194.53;;;19.36;48.74
78582;BME280;67878;46.242;5.974;2024-01-06T00:10:32;94198.97;;;19.35;48.61
78582;BME280;67878;46.242;5.974;2024-01-06T00:12:57;94199.59;;;19.37;48.44
78582;BME280;67878;46.242;5.974;2024-01-06T00:15:23;94201.38;;;19.37;48.55
78582;BME280;67878;46.242;5.974;2024-01-06T00:17:48;94197.97;;;19.36;48.33
78582;BME280;67878;46.242;5.974;2024-01-06T00:20:14;94208.25;;;19.38;48.74
78582;BME280;67878;46.242;5.974;2024-01-06T00:22:39;94196.97;;;19.37;48.68
78582;BME280;67878;46.242;5.974;2024-01-06T00:25:06;94205.81;;;19.36;48.44
78582;BME280;67878;46.242;5.974;2024-01-06T00:27:32;94201.38;;;19.37;48.58
78582;BME280;67878;46.242;5.974;2024-01-06T00:29:57;94201.38;;;19.37;48.50
78582;BME280;67878;46.242;5.974;2024-01-06T00:32:23;94203.84;;;19.38;48.30
78582;BME280;67878;46.242;5.974;2024-01-06T00:34:48;94200.59;;;19.36;48.75
78582;BME280;67878;46.242;5.974;2024-01-06T00:37:14;94194.28;;;19.31;48.36
78582;BME280;67878;46.242;5.974;2024-01-06T00:39:39;94200.59;;;19.36;48.48
78582;BME280;67878;46.242;5.974;2024-01-06T00:42:04;94207.47;;;19.37;48.68
78582;BME280;67878;46.242;5.974;2024-01-06T00:44:30;94211.06;;;19.36;48.59
78582;BME280;67878;46.242;5.974;2024-01-06T00:46:55;94211.84;;;19.37;48.71
78582;BME280;67878;46.242;5.974;2024-01-06T00:49:21;94220.53;;;19.37;48.55
78582;BME280;67878;46.242;5.974;2024-01-06T00:51:46;94206.81;;;19.35;48.62
78582;BME280;67878;46.242;5.974;2024-01-06T00:54:12;94197.97;;;19.36;48.37
78582;BME280;67878;46.242;5.974;2024-01-06T00:56:37;94206.81;;;19.35;48.48
78582;BME280;67878;46.242;5.974;2024-01-06T00:59:03;94208.44;;;19.36;48.71
78582;BME280;67878;46.242;5.974;2024-01-06T01:01:28;94211.06;;;19.36;48.83
78582;BME280;67878;46.242;5.974;2024-01-06T01:03:53;94210.25;;;19.36;48.64
78582;BME280;67878;46.242;5.974;2024-01-06T01:06:19;94218.09;;;19.36;48.45
78582;BME280;67878;46.242;5.974;2024-01-06T01:08:45;94222.53;;;19.35;48.52
78582;BME280;67878;46.242;5.974;2024-01-06T01:11:11;94225.97;;;19.36;48.49
78582;BME280;67878;46.242;5.974;2024-01-06T01:13:36;94227.78;;;19.35;48.47
78582;BME280;67878;46.242;5.974;2024-01-06T01:16:02;94223.50;;;19.34;48.59
78582;BME280;67878;46.242;5.974;2024-01-06T01:18:28;94227.13;;;19.33;48.47
78582;BME280;67878;46.242;5.974;2024-01-06T01:20:53;94220.09;;;19.34;48.54
78582;BME280;67878;46.242;5.974;2024-01-06T01:23:19;94225.97;;;19.36;49.11
78582;BME280;67878;46.242;5.974;2024-01-06T01:25:44;94231.63;;;19.39;49.15
78582;BME280;67878;46.242;5.974;2024-01-06T01:28:10;94225.56;;;19.39;49.33
78582;BME280;67878;46.242;5.974;2024-01-06T01:30:35;94226.38;;;19.39;49.28
78582;BME280;67878;46.242;5.974;2024-01-06T01:33:00;94234.06;;;19.41;49.35
78582;BME280;67878;46.242;5.974;2024-01-06T01:35:26;94234.88;;;19.41;49.29
78582;BME280;67878;46.242;5.974;2024-01-06T01:37:51;94233.25;;;19.40;49.21
78582;BME280;67878;46.242;5.974;2024-01-06T01:40:17;94240.28;;;19.40;49.11
78582;BME280;67878;46.242;5.974;2024-01-06T01:42:43;94248.13;;;19.40;49.22
78582;BME280;67878;46.242;5.974;2024-01-06T01:45:09;94258.59;;;19.40;49.33
78582;BME280;67878;46.242;5.974;2024-01-06T01:47:35;94258.59;;;19.40;49.29
78582;BME280;67878;46.242;5.974;2024-01-06T01:50:01;94260.41;;;19.39;49.10
78582;BME280;67878;46.242;5.974;2024-01-06T01:52:28;94248.50;;;19.37;49.16
78582;BME280;67878;46.242;5.974;2024-01-06T01:54:53;94262.06;;;19.40;49.14
78582;BME280;67878;46.242;5.974;2024-01-06T01:57:20;94261.22;;;19.40;49.71
78582;BME280;67878;46.242;5.974;2024-01-06T01:59:49;94264.69;;;19.40;49.39
78582;BME280;67878;46.242;5.974;2024-01-06T02:02:15;94266.28;;;19.41;49.33
78582;BME280;67878;46.242;5.974;2024-01-06T02:04:41;94264.69;;;19.40;49.31
78582;BME280;67878;46.242;5.974;2024-01-06T02:07:06;94269.91;;;19.40;49.31
78582;BME280;67878;46.242;5.974;2024-01-06T02:09:31;94273.50;;;19.39;49.19
78582;BME280;67878;46.242;5.974;2024-01-06T02:11:57;94265.66;;;19.39;49.05
78582;BME280;67878;46.242;5.974;2024-01-06T02:14:23;94270.09;;;19.39;49.19
78582;BME280;67878;46.242;5.974;2024-01-06T02:16:49;94257.19;;;19.37;49.09
78582;BME280;67878;46.242;5.974;2024-01-06T02:19:16;94263.25;;;19.38;49.12
78582;BME280;67878;46.242;5.974;2024-01-06T02:21:43;94268.66;;;19.36;49.39
78582;BME280;67878;46.242;5.974;2024-01-06T02:24:09;94272.06;;;19.37;48.95
78582;BME280;67878;46.242;5.974;2024-01-06T02:26:35;94258.19;;;19.36;48.83
78582;BME280;67878;46.242;5.974;2024-01-06T02:29:00;94261.81;;;19.35;48.78
78582;BME280;67878;46.242;5.974;2024-01-06T02:31:27;94260.78;;;19.36;49.04
78582;BME280;67878;46.242;5.974;2024-01-06T02:33:53;94260.78;;;19.36;49.26
78582;BME280;67878;46.242;5.974;2024-01-06T02:36:19;94258.56;;;19.33;49.35
78582;BME280;67878;46.242;5.974;2024-01-06T02:38:45;94259.34;;;19.34;49.06
78582;BME280;67878;46.242;5.974;2024-01-06T02:41:10;94259.19;;;19.35;49.14
78582;BME280;67878;46.242;5.974;2024-01-06T02:43:36;94255.94;;;19.33;48.93
78582;BME280;67878;46.242;5.974;2024-01-06T02:46:01;94254.94;;;19.34;48.87
78582;BME280;67878;46.242;5.974;2024-01-06T02:48:27;94249.47;;;19.29;48.98
78582;BME280;67878;46.242;5.974;2024-01-06T02:50:55;94257.31;;;19.29;48.73
78582;BME280;67878;46.242;5.974;2024-01-06T02:53:20;94257.13;;;19.31;48.89
78582;BME280;67878;46.242;5.974;2024-01-06T02:55:46;94264.97;;;19.31;48.61
78582;BME280;67878;46.242;5.974;2024-01-06T02:58:11;94258.28;;;19.28;48.84
78582;BME280;67878;46.242;5.974;2024-01-06T03:00:36;94264.00;;;19.32;48.80
78582;BME280;67878;46.242;5.974;2024-01-06T03:03:02;94264.00;;;19.32;48.71
78582;BME280;67878;46.242;5.974;2024-01-06T03:05:27;94264.00;;;19.32;48.95
78582;BME280;67878;46.242;5.974;2024-01-06T03:07:53;94273.63;;;19.31;48.68
78582;BME280;67878;46.242;5.974;2024-01-06T03:10:18;94275.44;;;19.31;48.67
78582;BME280;67878;46.242;5.974;2024-01-06T03:12:44;94269.56;;;19.29;48.60
78582;BME280;67878;46.242;5.974;2024-01-06T03:15:09;94279.06;;;19.30;48.41
78582;BME280;67878;46.242;5.974;2024-01-06T03:17:35;94280.03;;;19.29;48.57
78582;BME280;67878;46.242;5.974;2024-01-06T03:20:01;94280.88;;;19.29;48.66
78582;BME280;67878;46.242;5.974;2024-01-06T03:22:26;94279.25;;;19.28;48.42
78582;BME280;67878;46.242;5.974;2024-01-06T03:24:51;94283.50;;;19.29;48.63
78582;BME280;67878;46.242;5.974;2024-01-06T03:27:17;94286.28;;;19.27;48.46
78582;BME280;67878;46.242;5.974;2024-01-06T03:29:42;94283.50;;;19.29;48.40
78582;BME280;67878;46.242;5.974;2024-01-06T03:32:08;94282.88;;;19.27;48.50
78582;BME280;67878;46.242;5.974;2024-01-06T03:34:33;94283.66;;;19.27;48.42
78582;BME280;67878;46.242;5.974;2024-01-06T03:36:58;94286.28;;;19.27;48.28
78582;BME280;67878;46.242;5.974;2024-01-06T03:39:24;94292.53;;;19.26;48.41
78582;BME280;67878;46.242;5.974;2024-01-06T03:41:49;94291.72;;;19.26;48.29
78582;BME280;67878;46.242;5.974;2024-01-06T03:44:15;94290.72;;;19.27;48.29
78582;BME280;67878;46.242;5.974;2024-01-06T03:46:40;94295.94;;;19.27;48.42
78582;BME280;67878;46.242;5.974;2024-01-06T03:49:05;94287.47;;;19.25;48.50
78582;BME280;67878;46.242;5.974;2024-01-06T03:51:31;94287.28;;;19.26;48.20
78582;BME280;67878;46.242;5.974;2024-01-06T03:53:56;94286.50;;;19.26;48.39
78582;BME280;67878;46.242;5.974;2024-01-06T03:56:22;94279.63;;;19.25;48.35
78582;BME280;67878;46.242;5.974;2024-01-06T03:58:47;94282.22;;;19.25;48.27
78582;BME280;67878;46.242;5.974;2024-01-06T04:01:13;94275.19;;;19.25;48.07
78582;BME280;67878;46.242;5.974;2024-01-06T04:03:38;94278.63;;;19.26;48.24
78582;BME280;67878;46.242;5.974;2024-01-06T04:06:07;94284.84;;;19.25;48.45
78582;BME280;67878;46.242;5.974;2024-01-06T04:08:32;94284.84;;;19.25;48.20
78582;BME280;67878;46.242;5.974;2024-01-06T04:10:58;94289.09;;;19.26;48.31
78582;BME280;67878;46.242;5.974;2024-01-06T04:13:23;94288.47;;;19.24;48.40
78582;BME280;67878;46.242;5.974;2024-01-06T04:15:50;94280.19;;;19.20;48.49
78582;BME280;67878;46.242;5.974;2024-01-06T04:18:16;94293.72;;;19.24;48.38
78582;BME280;67878;46.242;5.974;2024-01-06T04:20:41;94294.50;;;19.24;48.22
78582;BME280;67878;46.242;5.974;2024-01-06T04:23:07;94292.69;;;19.25;48.38
78582;BME280;67878;46.242;5.974;2024-01-06T04:25:32;94297.94;;;19.25;48.19
78582;BME280;67878;46.242;5.974;2024-01-06T04:27:57;94293.72;;;19.24;48.30
78582;BME280;67878;46.242;5.974;2024-01-06T04:30:23;94301.56;;;19.24;48.06
78582;BME280;67878;46.242;5.974;2024-01-06T04:32:50;94297.31;;;19.23;48.20
78582;BME280;67878;46.242;5.974;2024-01-06T04:35:16;94298.31;;;19.22;48.31
78582;BME280;67878;46.242;5.974;2024-01-06T04:37:41;94300.75;;;19.23;48.37
78582;BME280;67878;46.242;5.974;2024-01-06T04:40:07;94302.53;;;19.23;48.14
78582;BME280;67878;46.242;5.974;2024-01-06T04:42:33;94311.22;;;19.23;48.70
78582;BME280;67878;46.242;5.974;2024-01-06T04:44:58;94306.78;;;19.24;48.28
78582;BME280;67878;46.242;5.974;2024-01-06T04:47:24;94311.22;;;19.23;48.40
78582;BME280;67878;46.242;5.974;2024-01-06T04:49:50;94315.81;;;19.21;48.30
78582;BME280;67878;46.242;5.974;2024-01-06T04:52:15;94321.88;;;19.22;48.19
78582;BME280;67878;46.242;5.974;2024-01-06T04:54:41;94324.47;;;19.22;48.30
78582;BME280;67878;46.242;5.974;2024-01-06T04:57:06;94320.06;;;19.22;48.13
78582;BME280;67878;46.242;5.974;2024-01-06T04:59:31;94320.06;;;19.22;47.99
78582;BME280;67878;46.242;5.974;2024-01-06T05:01:57;94319.06;;;19.23;47.67
78582;BME280;67878;46.242;5.974;2024-01-06T05:04:23;94322.31;;;19.25;48.26
78582;BME280;67878;46.242;5.974;2024-01-06T05:06:50;94320.53;;;19.26;48.39
78582;BME280;67878;46.242;5.974;2024-01-06T05:09:16;94323.94;;;19.26;48.34
78582;BME280;67878;46.242;5.974;2024-01-06T05:11:43;94311.66;;;19.27;48.58
78582;BME280;67878;46.242;5.974;2024-01-06T05:14:09;94318.34;;;19.30;48.46
78582;BME280;67878;46.242;5.974;2024-01-06T05:16:34;94319.31;;;19.29;48.34
78582;BME280;67878;46.242;5.974;2024-01-06T05:18:59;94316.69;;;19.29;48.36
78582;BME280;67878;46.242;5.974;2024-01-06T05:21:29;94317.53;;;19.29;48.49
78582;BME280;67878;46.242;5.974;2024-01-06T05:23:55;94318.50;;;19.28;48.31
78582;BME280;67878;46.242;5.974;2024-01-06T05:26:20;94323.75;;;19.28;48.49
78582;BME280;67878;46.242;5.974;2024-01-06T05:28:46;94313.28;;;19.28;48.18
78582;BME280;67878;46.242;5.974;2024-01-06T05:31:11;94321.94;;;19.29;47.85
78582;BME280;67878;46.242;5.974;2024-01-06T05:33:36;94318.72;;;19.26;48.05
78582;BME280;67878;46.242;5.974;2024-01-06T05:36:02;94311.81;;;19.25;48.08
78582;BME280;67878;46.242;5.974;2024-01-06T05:38:28;94311.81;;;19.25;47.83
78582;BME280;67878;46.242;5.974;2024-01-06T05:40:53;94321.50;;;19.25;47.70
78582;BME280;67878;46.242;5.974;2024-01-06T05:43:18;94324.09;;;19.25;47.69
78582;BME280;67878;46.242;5.974;2024-01-06T05:45:44;94325.75;;;19.26;47.70
78582;BME280;67878;46.242;5.974;2024-01-06T05:48:10;94325.75;;;19.26;47.53
78582;BME280;67878;46.242;5.974;2024-01-06T05:50:40;94331.97;;;19.25;47.81
78582;BME280;67878;46.242;5.974;2024-01-06T05:53:06;94325.94;;;19.24;47.68
78582;BME280;67878;46.242;5.974;2024-01-06T05:55:33;94322.06;;;19.20;47.80
78582;BME280;67878;46.242;5.974;2024-01-06T05:57:59;94325.94;;;19.24;47.62
78582;BME280;67878;46.242;5.974;2024-01-06T06:00:24;94331.16;;;19.24;47.75
78582;BME280;67878;46.242;5.974;2024-01-06T06:02:50;94334.78;;;19.23;47.87
78582;BME280;67878;46.242;5.974;2024-01-06T06:05:16;94334.59;;;19.25;47.87
78582;BME280;67878;46.242;5.974;2024-01-06T06:07:42;94332.97;;;19.24;47.85
78582;BME280;67878;46.242;5.974;2024-01-06T06:10:11;94331.34;;;19.23;47.42
78582;BME280;67878;46.242;5.974;2024-01-06T06:12:36;94337.03;;;19.26;47.74
78582;BME280;67878;46.242;5.974;2024-01-06T06:15:05;94340.09;;;19.30;47.36
78582;BME280;67878;46.242;5.974;2024-01-06T06:17:31;94331.06;;;19.33;47.68
78582;BME280;67878;46.242;5.974;2024-01-06T06:20:03;94333.84;;;19.31;48.02
78582;BME280;67878;46.242;5.974;2024-01-06T06:22:29;94344.31;;;19.31;47.68
78582;BME280;67878;46.242;5.974;2024-01-06T06:24:58;94339.28;;;19.30;47.70
78582;BME280;67878;46.242;5.974;2024-01-06T06:27:24;94343.69;;;19.29;47.90
78582;BME280;67878;46.242;5.974;2024-01-06T06:29:49;94341.09;;;19.29;47.82
78582;BME280;67878;46.242;5.974;2024-01-06T06:32:15;94342.06;;;19.28;47.65
78582;BME280;67878;46.242;5.974;2024-01-06T06:34:40;94342.06;;;19.28;47.78
78582;BME280;67878;46.242;5.974;2024-01-06T06:37:06;94340.44;;;19.27;48.04
78582;BME280;67878;46.242;5.974;2024-01-06T06:39:32;94351.72;;;19.27;47.98
78582;BME280;67878;46.242;5.974;2024-01-06T06:41:59;94354.53;;;19.26;48.05
78582;BME280;67878;46.242;5.974;2024-01-06T06:44:24;94359.78;;;19.26;48.09
78582;BME280;67878;46.242;5.974;2024-01-06T06:46:50;94361.41;;;19.27;48.32
78582;BME280;67878;46.242;5.974;2024-01-06T06:49:15;94361.56;;;19.25;47.97
78582;BME280;67878;46.242;5.974;2024-01-06T06:51:41;94372.03;;;19.25;48.20
78582;BME280;67878;46.242;5.974;2024-01-06T06:54:12;94376.47;;;19.25;48.18
78582;BME280;67878;46.242;5.974;2024-01-06T06:56:38;94368.63;;;19.25;48.25
78582;BME280;67878;46.242;5.974;2024-01-06T06:59:03;94379.88;;;19.25;48.01
78582;BME280;67878;46.242;5.974;2024-01-06T07:01:28;94374.03;;;19.23;48.11
78582;BME280;67878;46.242;5.974;2024-01-06T07:03:54;94383.50;;;19.24;47.96
78582;BME280;67878;46.242;5.974;2024-01-06T07:06:19;94379.88;;;19.25;48.06
78582;BME280;67878;46.242;5.974;2024-01-06T07:08:45;94383.50;;;19.24;48.03
78582;BME280;67878;46.242;5.974;2024-01-06T07:11:10;94389.56;;;19.25;48.00
78582;BME280;67878;46.242;5.974;2024-01-06T07:13:37;94398.41;;;19.24;48.12
78582;BME280;67878;46.242;5.974;2024-01-06T07:16:02;94398.41;;;19.24;48.23
78582;BME280;67878;46.242;5.974;2024-01-06T07:18:30;94395.78;;;19.24;48.21
78582;BME280;67878;46.242;5.974;2024-01-06T07:20:58;94391.38;;;19.24;48.07
78582;BME280;67878;46.242;5.974;2024-01-06T07:23:23;94392.38;;;19.23;48.10
78582;BME280;67878;46.242;5.974;2024-01-06T07:25:48;94392.38;;;19.23;48.01
78582;BME280;67878;46.242;5.974;2024-01-06T07:28:14;94386.66;;;19.20;47.95
78582;BME280;67878;46.242;5.974;2024-01-06T07:30:39;94403.66;;;19.24;48.13
78582;BME280;67878;46.242;5.974;2024-01-06T07:33:05;94399.38;;;19.23;48.09
78582;BME280;67878;46.242;5.974;2024-01-06T07:35:30;94392.91;;;19.19;48.00
78582;BME280;67878;46.242;5.974;2024-01-06T07:37:55;94398.41;;;19.24;47.97
78582;BME280;67878;46.242;5.974;2024-01-06T07:40:21;94407.25;;;19.23;48.01
78582;BME280;67878;46.242;5.974;2024-01-06T07:42:48;94402.00;;;19.23;48.01
78582;BME280;67878;46.242;5.974;2024-01-06T07:45:14;94409.06;;;19.22;48.09
78582;BME280;67878;46.242;5.974;2024-01-06T07:47:39;94413.31;;;19.23;48.08
78582;BME280;67878;46.242;5.974;2024-01-06T07:50:05;94415.94;;;19.23;48.07
78582;BME280;67878;46.242;5.974;2024-01-06T07:52:31;94415.94;;;19.23;48.21
78582;BME280;67878;46.242;5.974;2024-01-06T07:54:56;94423.94;;;19.22;47.90
78582;BME280;67878;46.242;5.974;2024-01-06T07:57:21;94425.56;;;19.23;47.92
78582;BME280;67878;46.242;5.974;2024-01-06T07:59:47;94420.53;;;19.21;48.08
78582;BME280;67878;46.242;5.974;2024-01-06T08:02:12;94416.91;;;19.22;48.14
78582;BME280;67878;46.242;5.974;2024-01-06T08:04:38;94420.16;;;19.24;48.30
78582;BME280;67878;46.242;5.974;2024-01-06T08:07:03;94422.41;;;19.27;48.17
78582;BME280;67878;46.242;5.974;2024-01-06T08:09:28;94420.59;;;19.28;48.21
78582;BME280;67878;46.242;5.974;2024-01-06T08:11:54;94420.59;;;19.28;48.03
78582;BME280;67878;46.242;5.974;2024-01-06T08:14:19;94424.22;;;19.27;47.82
78582;BME280;67878;46.242;5.974;2024-01-06T08:16:45;94430.09;;;19.29;47.58
78582;BME280;67878;46.242;5.974;2024-01-06T08:19:11;94428.44;;;19.28;47.34
78582;BME280;67878;46.242;5.974;2024-01-06T08:21:36;94427.47;;;19.29;47.39
78582;BME280;67878;46.242;5.974;2024-01-06T08:24:02;94423.22;;;19.28;47.31
78582;BME280;67878;46.242;5.974;2024-01-06T08:26:29;94423.06;;;18.09;36.62
78582;BME280;67878;46.242;5.974;2024-01-06T08:28:54;94419.78;;;17.22;47.11
78582;BME280;67878;46.242;5.974;2024-01-06T08:31:20;94422.81;;;17.42;47.65
78582;BME280;67878;46.242;5.974;2024-01-06T08:33:45;94426.03;;;17.75;47.05
78582;BME280;67878;46.242;5.974;2024-01-06T08:36:11;94428.53;;;18.00;46.41
78582;BME280;67878;46.242;5.974;2024-01-06T08:38:38;94428.44;;;18.31;45.53
78582;BME280;67878;46.242;5.974;2024-01-06T08:41:04;94433.00;;;18.52;45.18
78582;BME280;67878;46.242;5.974;2024-01-06T08:43:29;94433.00;;;18.67;44.98
78582;BME280;67878;46.242;5.974;2024-01-06T08:45:54;94432.59;;;18.78;44.72
78582;BME280;67878;46.242;5.974;2024-01-06T08:48:24;94436.13;;;18.85;43.87
78582;BME280;67878;46.242;5.974;2024-01-06T08:50:49;94445.72;;;18.93;44.18
78582;BME280;67878;46.242;5.974;2024-01-06T08:53:16;94443.00;;;19.01;44.14
78582;BME280;67878;46.242;5.974;2024-01-06T08:55:41;94437.84;;;19.08;43.75
78582;BME280;67878;46.242;5.974;2024-01-06T08:58:07;94438.13;;;19.13;43.77
78582;BME280;67878;46.242;5.974;2024-01-06T09:00:32;94430.09;;;19.14;43.66
78582;BME280;67878;46.242;5.974;2024-01-06T09:02:58;94438.66;;;19.23;43.37
78582;BME280;67878;46.242;5.974;2024-01-06T09:05:23;94430.25;;;19.27;43.26
78582;BME280;67878;46.242;5.974;2024-01-06T09:07:48;94433.16;;;19.33;42.95
78582;BME280;67878;46.242;5.974;2024-01-06T09:10:16;94433.41;;;19.38;42.23
78582;BME280;67878;46.242;5.974;2024-01-06T09:12:42;94444.34;;;19.41;43.00
78582;BME280;67878;46.242;5.974;2024-01-06T09:15:11;94445.78;;;19.44;42.27
78582;BME280;67878;46.242;5.974;2024-01-06T09:17:37;94445.94;;;19.42;42.73
78582;BME280;67878;46.242;5.974;2024-01-06T09:20:03;94455.44;;;19.43;42.81
78582;BME280;67878;46.242;5.974;2024-01-06T09:22:29;94457.88;;;19.45;42.71
78582;BME280;67878;46.242;5.974;2024-01-06T09:24:54;94459.66;;;19.44;42.85
78582;BME280;67878;46.242;5.974;2024-01-06T09:27:20;94464.75;;;19.46;42.75
78582;BME280;67878;46.242;5.974;2024-01-06T09:29:45;94462.56;;;19.49;42.58
78582;BME280;67878;46.242;5.974;2024-01-06T09:32:11;94470.69;;;19.55;42.65
78582;BME280;67878;46.242;5.974;2024-01-06T09:34:38;94469.31;;;19.59;42.35
78582;BME280;67878;46.242;5.974;2024-01-06T09:37:03;94472.75;;;19.59;42.37
78582;BME280;67878;46.242;5.974;2024-01-06T09:39:29;94457.50;;;19.63;42.20
78582;BME280;67878;46.242;5.974;2024-01-06T09:41:56;94459.09;;;19.64;42.10
78582;BME280;67878;46.242;5.974;2024-01-06T09:44:21;94463.34;;;19.65;41.77
78582;BME280;67878;46.242;5.974;2024-01-06T09:46:47;94469.75;;;19.62;41.84
78582;BME280;67878;46.242;5.974;2024-01-06T09:49:13;94459.28;;;19.62;42.03
78582;BME280;67878;46.242;5.974;2024-01-06T09:51:40;94466.31;;;19.62;41.77
78582;BME280;67878;46.242;5.974;2024-01-06T09:54:09;94470.75;;;19.61;41.60
78582;BME280;67878;46.242;5.974;2024-01-06T09:56:35;94485.47;;;19.62;42.77
78582;BME280;67878;46.242;5.974;2024-01-06T09:59:00;94474.81;;;19.64;42.62
78582;BME280;67878;46.242;5.974;2024-01-06T10:01:26;94478.91;;;19.66;42.71
78582;BME280;67878;46.242;5.974;2024-01-06T10:03:51;94483.16;;;19.67;43.57
78582;BME280;67878;46.242;5.974;2024-01-06T10:06:17;94482.78;;;19.70;43.06
78582;BME280;67878;46.242;5.974;2024-01-06T10:08:53;94484.41;;;19.72;42.11
78582;BME280;67878;46.242;5.974;2024-01-06T10:11:19;94485.22;;;19.72;43.08
78582;BME280;67878;46.242;5.974;2024-01-06T10:13:48;94484.22;;;19.73;42.59
78582;BME280;67878;46.242;5.974;2024-01-06T10:16:14;94485.88;;;19.74;42.73
78582;BME280;67878;46.242;5.974;2024-01-06T10:18:40;94486.66;;;19.75;42.85
78582;BME280;67878;46.242;5.974;2024-01-06T10:21:05;94491.91;;;19.75;42.73
78582;BME280;67878;46.242;5.974;2024-01-06T10:23:32;94482.22;;;19.75;42.59
78582;BME280;67878;46.242;5.974;2024-01-06T10:25:58;94479.78;;;19.74;42.82
78582;BME280;67878;46.242;5.974;2024-01-06T10:28:24;94476.19;;;19.75;43.02
78582;BME280;67878;46.242;5.974;2024-01-06T10:30:52;94479.34;;;19.70;43.09
78582;BME280;67878;46.242;5.974;2024-01-06T10:33:18;94482.41;;;19.74;42.01
78582;BME280;67878;46.242;5.974;2024-01-06T10:35:44;94471.94;;;19.74;43.57
78582;BME280;67878;46.242;5.974;2024-01-06T10:38:11;94465.88;;;19.73;42.86
78582;BME280;67878;46.242;5.974;2024-01-06T10:40:36;94472.94;;;19.73;43.61
78582;BME280;67878;46.242;5.974;2024-01-06T10:43:03;94467.69;;;19.73;43.78
78582;BME280;67878;46.242;5.974;2024-01-06T10:45:29;94461.66;;;19.72;44.19
78582;BME280;67878;46.242;5.974;2024-01-06T10:47:55;94467.91;;;19.71;44.25
78582;BME280;67878;46.242;5.974;2024-01-06T10:50:21;94465.28;;;19.71;44.54
78582;BME280;67878;46.242;5.974;2024-01-06T10:52:48;94465.28;;;19.71;44.68
78582;BME280;67878;46.242;5.974;2024-01-06T10:55:15;94471.13;;;19.73;44.63
78582;BME280;67878;46.242;5.974;2024-01-06T10:57:46;94460.56;;;19.66;44.59
78582;BME280;67878;46.242;5.974;2024-01-06T11:00:12;94465.28;;;19.71;44.60
78582;BME280;67878;46.242;5.974;2024-01-06T11:02:39;94453.78;;;19.72;44.94
78582;BME280;67878;46.242;5.974;2024-01-06T11:05:04;94456.41;;;19.72;44.76
78582;BME280;67878;46.242;5.974;2024-01-06T11:07:33;94443.47;;;19.70;43.87
78582;BME280;67878;46.242;5.974;2024-01-06T11:10:11;94453.78;;;19.72;44.26
78582;BME280;67878;46.242;5.974;2024-01-06T11:12:41;94445.28;;;19.70;44.16
78582;BME280;67878;46.242;5.974;2024-01-06T11:15:07;94441.06;;;19.69;44.61
78582;BME280;67878;46.242;5.974;2024-01-06T11:20:22;94441.06;;;19.69;44.40
78582;BME280;67878;46.242;5.974;2024-01-06T11:22:48;94427.16;;;19.68;44.30
78582;BME280;67878;46.242;5.974;2024-01-06T11:25:17;94445.56;;;19.75;44.42
78582;BME280;67878;46.242;5.974;2024-01-06T11:27:46;94440.59;;;19.80;44.25
78582;BME280;67878;46.242;5.974;2024-01-06T11:30:25;94439.19;;;19.84;44.13
78582;BME280;67878;46.242;5.974;2024-01-06T11:32:52;94434.59;;;19.86;44.34
78582;BME280;67878;46.242;5.974;2024-01-06T11:35:19;94430.78;;;19.89;43.47
78582;BME280;67878;46.242;5.974;2024-01-06T11:40:23;94425.72;;;19.87;42.72
78582;BME280;67878;46.242;5.974;2024-01-06T11:43:09;94431.59;;;19.89;41.74
78582;BME280;67878;46.242;5.974;2024-01-06T11:45:39;94420.31;;;19.89;43.11
78582;BME280;67878;46.242;5.974;2024-01-06T11:48:08;94429.41;;;19.93;43.46
78582;BME280;67878;46.242;5.974;2024-01-06T11:50:36;94415.31;;;19.94;43.68
78582;BME280;67878;46.242;5.974;2024-01-06T11:53:02;94420.56;;;19.94;42.97
78582;BME280;67878;46.242;5.974;2024-01-06T11:55:28;94414.53;;;19.93;43.85
78582;BME280;67878;46.242;5.974;2024-01-06T11:57:57;94414.53;;;19.93;43.81
78582;BME280;67878;46.242;5.974;2024-01-06T12:00:27;94418.38;;;19.98;43.86
78582;BME280;67878;46.242;5.974;2024-01-06T12:02:58;94420.00;;;19.99;43.75
78582;BME280;67878;46.242;5.974;2024-01-06T12:05:24;94412.13;;;19.99;43.92
78582;BME280;67878;46.242;5.974;2024-01-06T12:07:59;94418.00;;;20.01;44.00
78582;BME280;67878;46.242;5.974;2024-01-06T12:10:26;94409.13;;;20.02;43.94
78582;BME280;67878;46.242;5.974;2024-01-06T12:13:00;94402.91;;;20.03;43.31
78582;BME280;67878;46.242;5.974;2024-01-06T12:15:30;94402.69;;;20.04;43.94
78582;BME280;67878;46.242;5.974;2024-01-06T12:17:56;94385.31;;;19.97;44.09
78582;BME280;67878;46.242;5.974;2024-01-06T12:20:23;94395.69;;;20.05;44.00
78582;BME280;67878;46.242;5.974;2024-01-06T12:22:51;94392.84;;;20.06;44.04
78582;BME280;67878;46.242;5.974;2024-01-06T12:25:17;94398.31;;;20.05;44.25
78582;BME280;67878;46.242;5.974;2024-01-06T12:27:43;94404.16;;;20.07;44.26
78582;BME280;67878;46.242;5.974;2024-01-06T12:30:16;94397.91;;;20.08;44.45
78582;BME280;67878;46.242;5.974;2024-01-06T12:32:45;94391.84;;;20.07;44.55
78582;BME280;67878;46.242;5.974;2024-01-06T12:35:11;94380.56;;;20.07;44.64
78582;BME280;67878;46.242;5.974;2024-01-06T12:37:37;94383.19;;;20.07;44.81
78582;BME280;67878;46.242;5.974;2024-01-06T12:40:03;94392.84;;;20.06;44.68
78582;BME280;67878;46.242;5.974;2024-01-06T12:42:28;94382.19;;;20.08;44.94
78582;BME280;67878;46.242;5.974;2024-01-06T12:44:54;94392.69;;;20.08;44.95
78582;BME280;67878;46.242;5.974;2024-01-06T12:47:19;94392.69;;;20.08;44.95
78582;BME280;67878;46.242;5.974;2024-01-06T12:49:45;94374.50;;;20.06;45.06
78582;BME280;67878;46.242;5.974;2024-01-06T12:52:11;94383.19;;;20.07;44.92
78582;BME280;67878;46.242;5.974;2024-01-06T12:54:40;94385.78;;;20.07;44.94
78582;BME280;67878;46.242;5.974;2024-01-06T12:57:09;94381.56;;;20.06;44.63
78582;BME280;67878;46.242;5.974;2024-01-06T12:59:35;94379.94;;;20.05;44.40